sensor_id;sensor_type;location;lat;lon;timestamp;P1;durP1;ratioP1;P2;durP2;ratioP2
15132;SDS011;7667;51.232;17.110;2023-04-03T00:01:21;4.67;;;2.63;;
15132;SDS011;7667;51.232;17.110;2023-04-03T00:03:49;5.57;;;2.40;;
15132;SDS011;7667;51.232;17.110;2023-04-03T00:06:18;4.90;;;2.80;;
15132;SDS011;7667;51.232;17.110;2023-04-03T00:08:46;6.03;;;2.50;;
15132;SDS011;7667;51.232;17.110;2023-04-03T00:11:14;6.17;;;2.20;;
15132;SDS011;7667;51.232;17.110;2023-04-03T00:13:41;4.50;;;2.13;;
15132;SDS011;7667;51.232;17.110;2023-04-03T00:16:10;4.00;;;2.30;;
15132;SDS011;7667;51.232;17.110;2023-04-03T00:18:38;5.60;;;2.30;;
15132;SDS011;7667;51.232;17.110;2023-04-03T00:21:07;4.37;;;2.20;;
15132;SDS011;7667;51.232;17.110;2023-04-03T00:23:37;6.57;;;3.07;;
15132;SDS011;7667;51.232;17.110;2023-04-03T00:26:05;5.70;;;2.10;;
15132;SDS011;7667;51.232;17.110;2023-04-03T00:28:32;4.40;;;2.20;;
15132;SDS011;7667;51.232;17.110;2023-04-03T00:31:00;4.20;;;1.97;;
15132;SDS011;7667;51.232;17.110;2023-04-03T00:33:27;4.63;;;2.40;;
15132;SDS011;7667;51.232;17.110;2023-04-03T00:35:55;4.17;;;2.30;;
15132;SDS011;7667;51.232;17.110;2023-04-03T00:38:23;5.43;;;2.33;;
15132;SDS011;7667;51.232;17.110;2023-04-03T00:40:53;4.73;;;2.20;;
15132;SDS011;7667;51.232;17.110;2023-04-03T00:43:22;4.73;;;2.10;;
15132;SDS011;7667;51.232;17.110;2023-04-03T00:45:53;8.73;;;2.53;;
15132;SDS011;7667;51.232;17.110;2023-04-03T00:48:45;5.10;;;2.27;;
15132;SDS011;7667;51.232;17.110;2023-04-03T00:51:18;5.73;;;2.17;;
15132;SDS011;7667;51.232;17.110;2023-04-03T00:53:51;5.77;;;2.40;;
15132;SDS011;7667;51.232;17.110;2023-04-03T00:56:25;4.57;;;2.23;;
15132;SDS011;7667;51.232;17.110;2023-04-03T00:58:56;5.27;;;2.27;;
15132;SDS011;7667;51.232;17.110;2023-04-03T01:01:34;5.00;;;2.00;;
15132;SDS011;7667;51.232;17.110;2023-04-03T01:04:03;5.73;;;2.50;;
15132;SDS011;7667;51.232;17.110;2023-04-03T01:06:33;7.57;;;2.53;;
15132;SDS011;7667;51.232;17.110;2023-04-03T01:09:04;6.53;;;2.33;;
15132;SDS011;7667;51.232;17.110;2023-04-03T01:11:32;5.57;;;2.53;;
15132;SDS011;7667;51.232;17.110;2023-04-03T01:14:00;5.93;;;2.03;;
15132;SDS011;7667;51.232;17.110;2023-04-03T01:16:29;5.27;;;1.97;;
15132;SDS011;7667;51.232;17.110;2023-04-03T01:18:58;5.70;;;2.27;;
15132;SDS011;7667;51.232;17.110;2023-04-03T01:21:42;5.60;;;2.07;;
15132;SDS011;7667;51.232;17.110;2023-04-03T01:27:03;5.27;;;2.10;;
15132;SDS011;7667;51.232;17.110;2023-04-03T01:29:33;4.43;;;2.47;;
15132;SDS011;7667;51.232;17.110;2023-04-03T01:32:02;6.67;;;2.20;;
15132;SDS011;7667;51.232;17.110;2023-04-03T01:34:30;4.57;;;2.40;;
15132;SDS011;7667;51.232;17.110;2023-04-03T01:36:58;6.63;;;2.37;;
15132;SDS011;7667;51.232;17.110;2023-04-03T01:39:26;5.97;;;2.10;;
15132;SDS011;7667;51.232;17.110;2023-04-03T01:41:54;4.40;;;2.40;;
15132;SDS011;7667;51.232;17.110;2023-04-03T01:44:21;4.67;;;2.37;;
15132;SDS011;7667;51.232;17.110;2023-04-03T01:46:49;6.17;;;2.43;;
15132;SDS011;7667;51.232;17.110;2023-04-03T01:49:16;4.40;;;2.03;;
15132;SDS011;7667;51.232;17.110;2023-04-03T01:51:45;3.90;;;2.00;;
15132;SDS011;7667;51.232;17.110;2023-04-03T01:54:12;6.10;;;2.73;;
15132;SDS011;7667;51.232;17.110;2023-04-03T01:56:40;6.23;;;2.33;;
15132;SDS011;7667;51.232;17.110;2023-04-03T01:59:07;4.87;;;2.40;;
15132;SDS011;7667;51.232;17.110;2023-04-03T02:01:35;4.90;;;2.20;;
15132;SDS011;7667;51.232;17.110;2023-04-03T02:04:03;4.63;;;2.00;;
15132;SDS011;7667;51.232;17.110;2023-04-03T02:06:31;5.77;;;2.30;;
15132;SDS011;7667;51.232;17.110;2023-04-03T02:08:58;3.63;;;2.37;;
15132;SDS011;7667;51.232;17.110;2023-04-03T02:11:26;6.97;;;2.23;;
15132;SDS011;7667;51.232;17.110;2023-04-03T02:13:54;6.87;;;2.20;;
15132;SDS011;7667;51.232;17.110;2023-04-03T02:16:21;4.93;;;2.37;;
15132;SDS011;7667;51.232;17.110;2023-04-03T02:18:49;4.17;;;2.50;;
15132;SDS011;7667;51.232;17.110;2023-04-03T02:21:17;6.77;;;2.30;;
15132;SDS011;7667;51.232;17.110;2023-04-03T02:23:45;4.57;;;2.20;;
15132;SDS011;7667;51.232;17.110;2023-04-03T02:26:13;5.13;;;2.00;;
15132;SDS011;7667;51.232;17.110;2023-04-03T02:28:42;5.00;;;2.00;;
15132;SDS011;7667;51.232;17.110;2023-04-03T02:31:10;6.07;;;2.40;;
15132;SDS011;7667;51.232;17.110;2023-04-03T02:33:38;5.43;;;2.13;;
15132;SDS011;7667;51.232;17.110;2023-04-03T02:36:06;6.37;;;2.20;;
15132;SDS011;7667;51.232;17.110;2023-04-03T02:38:34;4.77;;;2.20;;
15132;SDS011;7667;51.232;17.110;2023-04-03T02:41:06;5.60;;;2.20;;
15132;SDS011;7667;51.232;17.110;2023-04-03T02:43:37;7.70;;;2.23;;
15132;SDS011;7667;51.232;17.110;2023-04-03T02:46:05;5.20;;;2.20;;
15132;SDS011;7667;51.232;17.110;2023-04-03T02:48:33;5.83;;;2.40;;
15132;SDS011;7667;51.232;17.110;2023-04-03T02:51:02;7.10;;;2.40;;
15132;SDS011;7667;51.232;17.110;2023-04-03T02:53:29;5.37;;;2.40;;
15132;SDS011;7667;51.232;17.110;2023-04-03T02:55:57;6.50;;;2.43;;
15132;SDS011;7667;51.232;17.110;2023-04-03T02:58:25;5.90;;;2.10;;
15132;SDS011;7667;51.232;17.110;2023-04-03T03:00:53;6.03;;;2.30;;
15132;SDS011;7667;51.232;17.110;2023-04-03T03:03:21;5.43;;;2.37;;
15132;SDS011;7667;51.232;17.110;2023-04-03T03:05:48;6.73;;;2.30;;
15132;SDS011;7667;51.232;17.110;2023-04-03T03:08:16;5.03;;;2.20;;
15132;SDS011;7667;51.232;17.110;2023-04-03T03:10:46;6.93;;;2.30;;
15132;SDS011;7667;51.232;17.110;2023-04-03T03:13:14;6.07;;;2.47;;
15132;SDS011;7667;51.232;17.110;2023-04-03T03:15:42;4.43;;;2.07;;
15132;SDS011;7667;51.232;17.110;2023-04-03T03:18:10;6.87;;;2.27;;
15132;SDS011;7667;51.232;17.110;2023-04-03T03:20:37;4.30;;;2.17;;
15132;SDS011;7667;51.232;17.110;2023-04-03T03:23:05;5.70;;;2.40;;
15132;SDS011;7667;51.232;17.110;2023-04-03T03:25:32;4.70;;;2.23;;
15132;SDS011;7667;51.232;17.110;2023-04-03T03:28:00;8.30;;;2.60;;
15132;SDS011;7667;51.232;17.110;2023-04-03T03:30:28;5.27;;;2.97;;
15132;SDS011;7667;51.232;17.110;2023-04-03T03:32:55;6.50;;;2.60;;
15132;SDS011;7667;51.232;17.110;2023-04-03T03:35:23;4.93;;;2.30;;
15132;SDS011;7667;51.232;17.110;2023-04-03T03:37:51;6.23;;;2.40;;
15132;SDS011;7667;51.232;17.110;2023-04-03T03:40:18;6.90;;;2.90;;
15132;SDS011;7667;51.232;17.110;2023-04-03T03:42:46;7.90;;;2.67;;
15132;SDS011;7667;51.232;17.110;2023-04-03T03:45:13;5.10;;;2.63;;
15132;SDS011;7667;51.232;17.110;2023-04-03T03:47:41;7.43;;;2.70;;
15132;SDS011;7667;51.232;17.110;2023-04-03T03:50:09;8.00;;;3.00;;
15132;SDS011;7667;51.232;17.110;2023-04-03T03:52:36;5.50;;;2.30;;
15132;SDS011;7667;51.232;17.110;2023-04-03T03:55:05;4.53;;;2.40;;
15132;SDS011;7667;51.232;17.110;2023-04-03T03:57:33;6.43;;;2.50;;
15132;SDS011;7667;51.232;17.110;2023-04-03T04:00:02;6.70;;;2.63;;
15132;SDS011;7667;51.232;17.110;2023-04-03T04:02:30;6.90;;;2.60;;
15132;SDS011;7667;51.232;17.110;2023-04-03T04:04:58;5.07;;;2.13;;
15132;SDS011;7667;51.232;17.110;2023-04-03T04:07:26;7.67;;;2.50;;
15132;SDS011;7667;51.232;17.110;2023-04-03T04:09:55;7.43;;;2.40;;
15132;SDS011;7667;51.232;17.110;2023-04-03T04:12:23;5.70;;;2.10;;
15132;SDS011;7667;51.232;17.110;2023-04-03T04:14:51;4.83;;;2.33;;
15132;SDS011;7667;51.232;17.110;2023-04-03T04:17:18;7.10;;;2.53;;
15132;SDS011;7667;51.232;17.110;2023-04-03T04:19:46;6.47;;;2.40;;
15132;SDS011;7667;51.232;17.110;2023-04-03T04:22:14;4.57;;;2.33;;
15132;SDS011;7667;51.232;17.110;2023-04-03T04:24:41;6.07;;;2.40;;
15132;SDS011;7667;51.232;17.110;2023-04-03T04:27:09;7.33;;;2.50;;
15132;SDS011;7667;51.232;17.110;2023-04-03T04:29:37;7.43;;;2.40;;
15132;SDS011;7667;51.232;17.110;2023-04-03T04:32:04;4.00;;;2.17;;
15132;SDS011;7667;51.232;17.110;2023-04-03T04:34:32;5.83;;;2.70;;
15132;SDS011;7667;51.232;17.110;2023-04-03T04:36:59;7.80;;;2.77;;
15132;SDS011;7667;51.232;17.110;2023-04-03T04:39:27;4.43;;;2.40;;
15132;SDS011;7667;51.232;17.110;2023-04-03T04:41:55;5.93;;;2.53;;
15132;SDS011;7667;51.232;17.110;2023-04-03T04:44:22;5.50;;;2.30;;
15132;SDS011;7667;51.232;17.110;2023-04-03T04:46:50;6.27;;;2.20;;
15132;SDS011;7667;51.232;17.110;2023-04-03T04:49:17;4.40;;;2.30;;
15132;SDS011;7667;51.232;17.110;2023-04-03T04:51:45;5.93;;;2.27;;
15132;SDS011;7667;51.232;17.110;2023-04-03T04:54:17;7.30;;;2.87;;
15132;SDS011;7667;51.232;17.110;2023-04-03T04:56:45;5.67;;;2.13;;
15132;SDS011;7667;51.232;17.110;2023-04-03T04:59:13;6.67;;;2.63;;
15132;SDS011;7667;51.232;17.110;2023-04-03T05:01:40;6.73;;;2.63;;
15132;SDS011;7667;51.232;17.110;2023-04-03T05:04:08;6.33;;;2.70;;
15132;SDS011;7667;51.232;17.110;2023-04-03T05:06:36;5.97;;;3.17;;
15132;SDS011;7667;51.232;17.110;2023-04-03T05:09:04;9.50;;;3.27;;
15132;SDS011;7667;51.232;17.110;2023-04-03T05:11:32;7.80;;;2.93;;
15132;SDS011;7667;51.232;17.110;2023-04-03T05:14:00;6.23;;;2.60;;
15132;SDS011;7667;51.232;17.110;2023-04-03T05:16:27;6.80;;;2.63;;
15132;SDS011;7667;51.232;17.110;2023-04-03T05:18:55;5.97;;;2.50;;
15132;SDS011;7667;51.232;17.110;2023-04-03T05:21:22;4.90;;;2.47;;
15132;SDS011;7667;51.232;17.110;2023-04-03T05:23:52;8.33;;;2.83;;
15132;SDS011;7667;51.232;17.110;2023-04-03T05:26:20;6.00;;;2.60;;
15132;SDS011;7667;51.232;17.110;2023-04-03T05:28:47;7.27;;;2.80;;
15132;SDS011;7667;51.232;17.110;2023-04-03T05:31:15;6.60;;;2.90;;
15132;SDS011;7667;51.232;17.110;2023-04-03T05:33:42;7.17;;;3.33;;
15132;SDS011;7667;51.232;17.110;2023-04-03T05:36:10;8.60;;;3.50;;
15132;SDS011;7667;51.232;17.110;2023-04-03T05:38:39;7.30;;;4.10;;
15132;SDS011;7667;51.232;17.110;2023-04-03T05:41:07;6.00;;;3.20;;
15132;SDS011;7667;51.232;17.110;2023-04-03T05:43:34;5.93;;;2.97;;
15132;SDS011;7667;51.232;17.110;2023-04-03T05:46:08;6.37;;;2.57;;
15132;SDS011;7667;51.232;17.110;2023-04-03T05:48:41;6.23;;;2.73;;
15132;SDS011;7667;51.232;17.110;2023-04-03T05:51:22;5.73;;;2.93;;
15132;SDS011;7667;51.232;17.110;2023-04-03T05:56:51;12.27;;;7.17;;
15132;SDS011;7667;51.232;17.110;2023-04-03T05:59:20;10.00;;;3.80;;
15132;SDS011;7667;51.232;17.110;2023-04-03T06:01:47;8.83;;;3.70;;
15132;SDS011;7667;51.232;17.110;2023-04-03T06:04:15;7.37;;;3.70;;
15132;SDS011;7667;51.232;17.110;2023-04-03T06:09:20;5.30;;;2.93;;
15132;SDS011;7667;51.232;17.110;2023-04-03T06:11:49;7.13;;;3.27;;
15132;SDS011;7667;51.232;17.110;2023-04-03T06:14:18;5.83;;;3.00;;
15132;SDS011;7667;51.232;17.110;2023-04-03T06:16:45;5.20;;;2.70;;
15132;SDS011;7667;51.232;17.110;2023-04-03T06:19:14;5.13;;;2.33;;
15132;SDS011;7667;51.232;17.110;2023-04-03T06:21:42;5.73;;;2.97;;
15132;SDS011;7667;51.232;17.110;2023-04-03T06:24:10;6.47;;;3.20;;
15132;SDS011;7667;51.232;17.110;2023-04-03T06:26:43;4.50;;;2.87;;
15132;SDS011;7667;51.232;17.110;2023-04-03T06:29:12;6.77;;;3.47;;
15132;SDS011;7667;51.232;17.110;2023-04-03T06:31:39;9.60;;;4.47;;
15132;SDS011;7667;51.232;17.110;2023-04-03T06:34:07;11.97;;;5.43;;
15132;SDS011;7667;51.232;17.110;2023-04-03T06:36:35;17.53;;;8.00;;
15132;SDS011;7667;51.232;17.110;2023-04-03T06:39:02;9.97;;;5.20;;
15132;SDS011;7667;51.232;17.110;2023-04-03T06:41:31;15.70;;;7.23;;
15132;SDS011;7667;51.232;17.110;2023-04-03T06:44:00;11.80;;;6.37;;
15132;SDS011;7667;51.232;17.110;2023-04-03T06:46:27;9.93;;;5.60;;
15132;SDS011;7667;51.232;17.110;2023-04-03T06:48:55;10.83;;;4.60;;
15132;SDS011;7667;51.232;17.110;2023-04-03T06:53:56;7.70;;;4.23;;
15132;SDS011;7667;51.232;17.110;2023-04-03T06:56:25;12.73;;;7.23;;
15132;SDS011;7667;51.232;17.110;2023-04-03T06:58:54;6.50;;;2.73;;
15132;SDS011;7667;51.232;17.110;2023-04-03T07:01:27;6.83;;;3.90;;
15132;SDS011;7667;51.232;17.110;2023-04-03T07:03:55;13.47;;;6.43;;
15132;SDS011;7667;51.232;17.110;2023-04-03T07:06:23;15.80;;;9.60;;
15132;SDS011;7667;51.232;17.110;2023-04-03T07:08:54;17.80;;;8.53;;
15132;SDS011;7667;51.232;17.110;2023-04-03T07:11:22;33.67;;;19.50;;
15132;SDS011;7667;51.232;17.110;2023-04-03T07:13:50;37.20;;;27.87;;
15132;SDS011;7667;51.232;17.110;2023-04-03T07:16:18;23.50;;;13.70;;
15132;SDS011;7667;51.232;17.110;2023-04-03T07:18:46;22.03;;;12.80;;
15132;SDS011;7667;51.232;17.110;2023-04-03T07:21:14;13.20;;;8.70;;
15132;SDS011;7667;51.232;17.110;2023-04-03T07:23:42;10.10;;;6.20;;
15132;SDS011;7667;51.232;17.110;2023-04-03T07:26:09;11.87;;;7.43;;
15132;SDS011;7667;51.232;17.110;2023-04-03T07:28:37;5.07;;;3.10;;
15132;SDS011;7667;51.232;17.110;2023-04-03T07:31:10;6.30;;;3.30;;
15132;SDS011;7667;51.232;17.110;2023-04-03T07:33:40;7.97;;;5.17;;
15132;SDS011;7667;51.232;17.110;2023-04-03T07:36:10;4.63;;;2.60;;
15132;SDS011;7667;51.232;17.110;2023-04-03T07:38:42;5.73;;;3.20;;
15132;SDS011;7667;51.232;17.110;2023-04-03T07:41:14;5.33;;;3.10;;
15132;SDS011;7667;51.232;17.110;2023-04-03T07:43:44;4.93;;;2.90;;
15132;SDS011;7667;51.232;17.110;2023-04-03T07:46:14;3.77;;;2.50;;
15132;SDS011;7667;51.232;17.110;2023-04-03T07:48:42;4.77;;;2.20;;
15132;SDS011;7667;51.232;17.110;2023-04-03T07:51:10;6.37;;;2.60;;
15132;SDS011;7667;51.232;17.110;2023-04-03T07:53:37;4.80;;;2.80;;
15132;SDS011;7667;51.232;17.110;2023-04-03T07:56:05;8.30;;;4.03;;
15132;SDS011;7667;51.232;17.110;2023-04-03T07:58:33;4.90;;;2.80;;
15132;SDS011;7667;51.232;17.110;2023-04-03T08:01:01;5.73;;;2.80;;
15132;SDS011;7667;51.232;17.110;2023-04-03T08:03:30;5.17;;;2.13;;
15132;SDS011;7667;51.232;17.110;2023-04-03T08:06:01;4.77;;;2.30;;
15132;SDS011;7667;51.232;17.110;2023-04-03T08:08:33;10.57;;;5.47;;
15132;SDS011;7667;51.232;17.110;2023-04-03T08:11:03;8.60;;;4.40;;
15132;SDS011;7667;51.232;17.110;2023-04-03T08:13:32;8.17;;;4.60;;
15132;SDS011;7667;51.232;17.110;2023-04-03T08:16:09;6.47;;;3.10;;
15132;SDS011;7667;51.232;17.110;2023-04-03T08:18:40;4.67;;;3.10;;
15132;SDS011;7667;51.232;17.110;2023-04-03T08:21:09;3.40;;;2.53;;
15132;SDS011;7667;51.232;17.110;2023-04-03T08:23:38;2.63;;;1.50;;
15132;SDS011;7667;51.232;17.110;2023-04-03T08:26:15;4.93;;;2.00;;
15132;SDS011;7667;51.232;17.110;2023-04-03T08:28:47;7.23;;;4.10;;
15132;SDS011;7667;51.232;17.110;2023-04-03T08:31:16;10.07;;;5.13;;
15132;SDS011;7667;51.232;17.110;2023-04-03T08:33:46;8.17;;;3.97;;
15132;SDS011;7667;51.232;17.110;2023-04-03T08:36:17;7.37;;;4.17;;
15132;SDS011;7667;51.232;17.110;2023-04-03T08:38:51;5.63;;;2.93;;
15132;SDS011;7667;51.232;17.110;2023-04-03T08:47:20;4.20;;;1.87;;
15132;SDS011;7667;51.232;17.110;2023-04-03T08:50:00;3.23;;;1.70;;
15132;SDS011;7667;51.232;17.110;2023-04-03T08:57:57;7.70;;;3.97;;
15132;SDS011;7667;51.232;17.110;2023-04-03T09:00:55;5.67;;;3.20;;
15132;SDS011;7667;51.232;17.110;2023-04-03T09:03:31;4.00;;;1.80;;
15132;SDS011;7667;51.232;17.110;2023-04-03T09:06:15;4.17;;;2.00;;
15132;SDS011;7667;51.232;17.110;2023-04-03T09:14:38;2.43;;;1.20;;
15132;SDS011;7667;51.232;17.110;2023-04-03T09:26:05;3.30;;;2.47;;
15132;SDS011;7667;51.232;17.110;2023-04-03T09:28:41;4.77;;;2.70;;
15132;SDS011;7667;51.232;17.110;2023-04-03T09:31:26;4.10;;;2.30;;
15132;SDS011;7667;51.232;17.110;2023-04-03T09:34:03;3.67;;;1.80;;
15132;SDS011;7667;51.232;17.110;2023-04-03T09:36:44;3.47;;;1.30;;
15132;SDS011;7667;51.232;17.110;2023-04-03T09:39:15;4.60;;;1.90;;
15132;SDS011;7667;51.232;17.110;2023-04-03T09:44:59;3.43;;;1.87;;
15132;SDS011;7667;51.232;17.110;2023-04-03T09:47:30;3.10;;;1.73;;
15132;SDS011;7667;51.232;17.110;2023-04-03T09:52:43;4.40;;;1.93;;
15132;SDS011;7667;51.232;17.110;2023-04-03T09:55:22;5.03;;;2.43;;
15132;SDS011;7667;51.232;17.110;2023-04-03T09:58:00;3.67;;;1.97;;
15132;SDS011;7667;51.232;17.110;2023-04-03T10:00:35;3.37;;;2.13;;
15132;SDS011;7667;51.232;17.110;2023-04-03T10:03:06;1.90;;;1.60;;
15132;SDS011;7667;51.232;17.110;2023-04-03T10:05:58;3.50;;;1.60;;
15132;SDS011;7667;51.232;17.110;2023-04-03T10:08:35;2.77;;;1.53;;
15132;SDS011;7667;51.232;17.110;2023-04-03T10:11:13;2.40;;;1.70;;
15132;SDS011;7667;51.232;17.110;2023-04-03T10:13:52;3.17;;;1.60;;
15132;SDS011;7667;51.232;17.110;2023-04-03T10:16:36;6.40;;;2.40;;
15132;SDS011;7667;51.232;17.110;2023-04-03T10:30:36;3.50;;;1.70;;
15132;SDS011;7667;51.232;17.110;2023-04-03T10:33:31;5.53;;;2.57;;
15132;SDS011;7667;51.232;17.110;2023-04-03T10:48:02;2.47;;;1.40;;
15132;SDS011;7667;51.232;17.110;2023-04-03T10:51:07;2.93;;;1.50;;
15132;SDS011;7667;51.232;17.110;2023-04-03T10:54:11;3.07;;;1.50;;
15132;SDS011;7667;51.232;17.110;2023-04-03T10:56:57;4.73;;;2.93;;
15132;SDS011;7667;51.232;17.110;2023-04-03T10:59:49;3.53;;;2.10;;
15132;SDS011;7667;51.232;17.110;2023-04-03T11:02:28;3.63;;;1.87;;
15132;SDS011;7667;51.232;17.110;2023-04-03T11:06:00;3.07;;;1.70;;
15132;SDS011;7667;51.232;17.110;2023-04-03T11:08:21;1.57;;;1.27;;
15132;SDS011;7667;51.232;17.110;2023-04-03T11:11:08;2.20;;;1.50;;
15132;SDS011;7667;51.232;17.110;2023-04-03T11:13:43;2.10;;;1.40;;
15132;SDS011;7667;51.232;17.110;2023-04-03T11:16:16;3.17;;;2.10;;
15132;SDS011;7667;51.232;17.110;2023-04-03T11:19:11;4.10;;;1.53;;
15132;SDS011;7667;51.232;17.110;2023-04-03T11:22:45;2.43;;;1.70;;
15132;SDS011;7667;51.232;17.110;2023-04-03T11:25:30;11.07;;;4.60;;
15132;SDS011;7667;51.232;17.110;2023-04-03T11:27:56;4.73;;;2.50;;
15132;SDS011;7667;51.232;17.110;2023-04-03T11:30:30;11.93;;;5.50;;
15132;SDS011;7667;51.232;17.110;2023-04-03T11:36:31;7.40;;;3.80;;
15132;SDS011;7667;51.232;17.110;2023-04-03T11:39:30;19.90;;;9.90;;
15132;SDS011;7667;51.232;17.110;2023-04-03T11:44:50;2.53;;;1.70;;
15132;SDS011;7667;51.232;17.110;2023-04-03T11:47:54;2.53;;;1.60;;
15132;SDS011;7667;51.232;17.110;2023-04-03T11:50:39;13.60;;;8.43;;
15132;SDS011;7667;51.232;17.110;2023-04-03T11:58:21;5.83;;;3.33;;
15132;SDS011;7667;51.232;17.110;2023-04-03T12:00:54;7.70;;;4.43;;
15132;SDS011;7667;51.232;17.110;2023-04-03T12:08:44;4.97;;;3.40;;
15132;SDS011;7667;51.232;17.110;2023-04-03T12:11:15;3.93;;;2.13;;
15132;SDS011;7667;51.232;17.110;2023-04-03T12:22:11;3.03;;;2.23;;
15132;SDS011;7667;51.232;17.110;2023-04-03T12:24:48;3.23;;;2.40;;
15132;SDS011;7667;51.232;17.110;2023-04-03T12:47:37;3.97;;;2.00;;
15132;SDS011;7667;51.232;17.110;2023-04-03T12:50:18;3.30;;;2.07;;
15132;SDS011;7667;51.232;17.110;2023-04-03T12:52:54;4.77;;;2.77;;
15132;SDS011;7667;51.232;17.110;2023-04-03T12:55:46;3.27;;;1.63;;
15132;SDS011;7667;51.232;17.110;2023-04-03T12:58:21;4.57;;;2.27;;
15132;SDS011;7667;51.232;17.110;2023-04-03T13:01:10;3.50;;;2.27;;
15132;SDS011;7667;51.232;17.110;2023-04-03T13:03:45;2.23;;;1.73;;
15132;SDS011;7667;51.232;17.110;2023-04-03T13:06:18;3.40;;;2.33;;
15132;SDS011;7667;51.232;17.110;2023-04-03T13:08:58;2.47;;;1.80;;
15132;SDS011;7667;51.232;17.110;2023-04-03T13:11:29;4.50;;;2.33;;
15132;SDS011;7667;51.232;17.110;2023-04-03T13:14:03;3.07;;;2.33;;
15132;SDS011;7667;51.232;17.110;2023-04-03T13:16:52;2.10;;;1.90;;
15132;SDS011;7667;51.232;17.110;2023-04-03T13:19:26;2.50;;;1.90;;
15132;SDS011;7667;51.232;17.110;2023-04-03T13:21:59;2.73;;;1.60;;
15132;SDS011;7667;51.232;17.110;2023-04-03T13:24:33;2.47;;;1.50;;
15132;SDS011;7667;51.232;17.110;2023-04-03T13:27:04;3.20;;;1.90;;
15132;SDS011;7667;51.232;17.110;2023-04-03T13:29:33;6.23;;;1.90;;
15132;SDS011;7667;51.232;17.110;2023-04-03T13:32:03;2.97;;;2.00;;
15132;SDS011;7667;51.232;17.110;2023-04-03T13:34:37;2.33;;;1.80;;
15132;SDS011;7667;51.232;17.110;2023-04-03T13:37:27;5.30;;;3.10;;
15132;SDS011;7667;51.232;17.110;2023-04-03T13:43:39;4.03;;;2.17;;
15132;SDS011;7667;51.232;17.110;2023-04-03T13:46:20;3.27;;;2.23;;
15132;SDS011;7667;51.232;17.110;2023-04-03T13:48:55;5.63;;;3.17;;
15132;SDS011;7667;51.232;17.110;2023-04-03T13:51:24;3.37;;;2.10;;
15132;SDS011;7667;51.232;17.110;2023-04-03T13:53:59;11.70;;;6.23;;
15132;SDS011;7667;51.232;17.110;2023-04-03T13:56:38;11.20;;;6.73;;
15132;SDS011;7667;51.232;17.110;2023-04-03T14:01:47;14.37;;;7.57;;
15132;SDS011;7667;51.232;17.110;2023-04-03T14:04:54;16.13;;;8.17;;
15132;SDS011;7667;51.232;17.110;2023-04-03T14:07:28;15.83;;;7.90;;
15132;SDS011;7667;51.232;17.110;2023-04-03T14:09:57;8.53;;;4.73;;
15132;SDS011;7667;51.232;17.110;2023-04-03T14:12:27;3.93;;;2.10;;
15132;SDS011;7667;51.232;17.110;2023-04-03T14:15:01;3.33;;;2.00;;
15132;SDS011;7667;51.232;17.110;2023-04-03T14:17:34;3.97;;;2.90;;
15132;SDS011;7667;51.232;17.110;2023-04-03T14:20:01;2.53;;;1.97;;
15132;SDS011;7667;51.232;17.110;2023-04-03T14:22:31;3.30;;;2.10;;
15132;SDS011;7667;51.232;17.110;2023-04-03T14:25:01;2.43;;;1.70;;
15132;SDS011;7667;51.232;17.110;2023-04-03T14:27:35;5.17;;;4.10;;
15132;SDS011;7667;51.232;17.110;2023-04-03T14:30:07;4.20;;;2.60;;
15132;SDS011;7667;51.232;17.110;2023-04-03T14:33:02;4.93;;;3.40;;
15132;SDS011;7667;51.232;17.110;2023-04-03T14:35:30;3.43;;;1.90;;
15132;SDS011;7667;51.232;17.110;2023-04-03T14:37:57;3.63;;;2.80;;
15132;SDS011;7667;51.232;17.110;2023-04-03T14:40:26;2.90;;;1.97;;
15132;SDS011;7667;51.232;17.110;2023-04-03T14:42:54;3.70;;;2.50;;
15132;SDS011;7667;51.232;17.110;2023-04-03T14:45:23;3.53;;;2.40;;
15132;SDS011;7667;51.232;17.110;2023-04-03T14:50:50;2.10;;;1.70;;
15132;SDS011;7667;51.232;17.110;2023-04-03T14:53:31;2.30;;;1.50;;
15132;SDS011;7667;51.232;17.110;2023-04-03T14:56:04;2.07;;;1.40;;
15132;SDS011;7667;51.232;17.110;2023-04-03T14:58:38;3.00;;;1.50;;
15132;SDS011;7667;51.232;17.110;2023-04-03T15:01:06;2.77;;;1.90;;
15132;SDS011;7667;51.232;17.110;2023-04-03T15:03:37;2.20;;;1.60;;
15132;SDS011;7667;51.232;17.110;2023-04-03T15:06:05;9.70;;;5.80;;
15132;SDS011;7667;51.232;17.110;2023-04-03T15:08:32;7.13;;;4.17;;
15132;SDS011;7667;51.232;17.110;2023-04-03T15:11:00;7.87;;;4.57;;
15132;SDS011;7667;51.232;17.110;2023-04-03T15:13:28;6.47;;;3.93;;
15132;SDS011;7667;51.232;17.110;2023-04-03T15:15:55;4.43;;;2.50;;
15132;SDS011;7667;51.232;17.110;2023-04-03T15:18:24;6.07;;;3.60;;
15132;SDS011;7667;51.232;17.110;2023-04-03T15:20:56;6.40;;;3.00;;
15132;SDS011;7667;51.232;17.110;2023-04-03T15:23:24;3.57;;;1.80;;
15132;SDS011;7667;51.232;17.110;2023-04-03T15:25:56;6.13;;;2.20;;
15132;SDS011;7667;51.232;17.110;2023-04-03T15:28:27;2.70;;;1.97;;
15132;SDS011;7667;51.232;17.110;2023-04-03T15:31:07;3.27;;;2.00;;
15132;SDS011;7667;51.232;17.110;2023-04-03T15:33:36;3.17;;;1.80;;
15132;SDS011;7667;51.232;17.110;2023-04-03T15:36:04;3.47;;;1.90;;
15132;SDS011;7667;51.232;17.110;2023-04-03T15:38:48;4.03;;;1.87;;
15132;SDS011;7667;51.232;17.110;2023-04-03T15:41:15;3.07;;;2.00;;
15132;SDS011;7667;51.232;17.110;2023-04-03T15:43:43;3.73;;;2.33;;
15132;SDS011;7667;51.232;17.110;2023-04-03T15:46:11;4.20;;;2.40;;
15132;SDS011;7667;51.232;17.110;2023-04-03T15:48:40;3.60;;;2.17;;
15132;SDS011;7667;51.232;17.110;2023-04-03T15:51:07;4.80;;;2.37;;
15132;SDS011;7667;51.232;17.110;2023-04-03T15:53:35;3.37;;;2.17;;
15132;SDS011;7667;51.232;17.110;2023-04-03T15:56:03;8.33;;;3.00;;
15132;SDS011;7667;51.232;17.110;2023-04-03T15:58:31;5.07;;;2.73;;
15132;SDS011;7667;51.232;17.110;2023-04-03T16:00:59;4.77;;;2.50;;
15132;SDS011;7667;51.232;17.110;2023-04-03T16:03:28;5.73;;;3.27;;
15132;SDS011;7667;51.232;17.110;2023-04-03T16:05:56;4.70;;;2.50;;
15132;SDS011;7667;51.232;17.110;2023-04-03T16:08:24;4.57;;;2.20;;
15132;SDS011;7667;51.232;17.110;2023-04-03T16:10:52;3.67;;;2.50;;
15132;SDS011;7667;51.232;17.110;2023-04-03T16:13:20;2.30;;;1.80;;
15132;SDS011;7667;51.232;17.110;2023-04-03T16:15:47;6.40;;;3.80;;
15132;SDS011;7667;51.232;17.110;2023-04-03T16:18:15;3.23;;;1.83;;
15132;SDS011;7667;51.232;17.110;2023-04-03T16:20:45;3.80;;;2.53;;
15132;SDS011;7667;51.232;17.110;2023-04-03T16:23:12;4.23;;;2.00;;
15132;SDS011;7667;51.232;17.110;2023-04-03T16:25:40;4.57;;;2.20;;
15132;SDS011;7667;51.232;17.110;2023-04-03T16:28:13;4.00;;;2.70;;
15132;SDS011;7667;51.232;17.110;2023-04-03T16:30:41;7.87;;;2.60;;
15132;SDS011;7667;51.232;17.110;2023-04-03T16:33:11;3.87;;;2.57;;
15132;SDS011;7667;51.232;17.110;2023-04-03T16:35:40;9.93;;;4.87;;
15132;SDS011;7667;51.232;17.110;2023-04-03T16:38:11;6.83;;;3.50;;
15132;SDS011;7667;51.232;17.110;2023-04-03T16:40:38;13.80;;;6.03;;
15132;SDS011;7667;51.232;17.110;2023-04-03T16:43:06;21.43;;;8.43;;
15132;SDS011;7667;51.232;17.110;2023-04-03T16:45:34;16.13;;;6.87;;
15132;SDS011;7667;51.232;17.110;2023-04-03T16:48:02;20.63;;;8.27;;
15132;SDS011;7667;51.232;17.110;2023-04-03T16:50:31;20.87;;;9.30;;
15132;SDS011;7667;51.232;17.110;2023-04-03T16:52:59;9.30;;;4.83;;
15132;SDS011;7667;51.232;17.110;2023-04-03T16:55:26;16.20;;;7.45;;
15132;SDS011;7667;51.232;17.110;2023-04-03T16:57:54;14.67;;;6.27;;
15132;SDS011;7667;51.232;17.110;2023-04-03T17:00:22;8.40;;;4.27;;
15132;SDS011;7667;51.232;17.110;2023-04-03T17:02:49;8.20;;;4.67;;
15132;SDS011;7667;51.232;17.110;2023-04-03T17:05:17;17.00;;;8.23;;
15132;SDS011;7667;51.232;17.110;2023-04-03T17:07:45;25.30;;;10.80;;
15132;SDS011;7667;51.232;17.110;2023-04-03T17:10:12;4.60;;;2.70;;
15132;SDS011;7667;51.232;17.110;2023-04-03T17:12:41;12.57;;;5.70;;